Time;durP1;ratioP1;P1;durP2;ratioP2;P2;SDS_P1;SDS_P2;PMS_P1;PMS_P2;Temp;Humidity;BMP_temperature;BMP_pressure;BME280_temperature;BME280_humidity;BME280_pressure;Samples;Min_cycle;Max_cycle;Signal;HPM_P1;HPM_P2
2023/09/14 00:00:00;;;;;;;;;;;;;;;-140.72;100.00;52798.72;5068143;28;20436;-71
2023/09/14 00:02:25;;;;;;;;;;;;;;;-140.72;100.00;52780.47;5066161;28;19927;-70
2023/09/14 00:04:50;;;;;;;;;;;;;;;-140.72;100.00;52788.59;5064759;28;19921;-70
2023/09/14 00:07:16;;;;;;;;;;;;;;;-140.72;100.00;52774.38;5069249;28;20039;-71
2023/09/14 00:09:41;;;;;;;;;;;;;;;-140.72;100.00;52774.38;5067589;28;19999;-71
2023/09/14 00:12:06;;;;;;;;;;;;;;;-140.72;100.00;52792.66;5070519;28;19935;-71
2023/09/14 00:14:32;;;;;;;;;;;;;;;-140.72;100.00;52764.25;5068627;28;19928;-71
2023/09/14 00:16:57;;;;;;;;;;;;;;;-140.72;100.00;52800.75;5068923;28;19974;-71
2023/09/14 00:19:24;;;;;;;;;;;;;;;-140.72;100.00;52800.75;5067133;28;20007;-71
2023/09/14 00:21:49;;;;;;;;;;;;;;;-140.72;100.00;52743.94;5068833;28;20383;-71
2023/09/14 00:24:15;;;;;;;;;;;;;;;-140.72;100.00;52819.03;5069032;28;19928;-71
2023/09/14 00:26:40;;;;;;;;;;;;;;;-140.72;100.00;52792.66;5068477;28;19921;-70
2023/09/14 00:29:05;;;;;;;;;;;;;;;-140.72;100.00;52782.50;5067902;28;20279;-71
2023/09/14 00:31:31;;;;;;;;;;;;;;;-140.72;100.00;52798.72;5070837;28;19920;-71
2023/09/14 00:33:56;;;;;;;;;;;;;;;-140.72;100.00;52812.94;5068774;28;19924;-71
2023/09/14 00:36:22;;;;;;;;;;;;;;;-140.72;100.00;52770.31;5068212;28;19920;-71
2023/09/14 00:38:47;;;;;;;;;;;;;;;-140.72;100.00;52762.22;5067714;28;21872;-71
2023/09/14 00:41:13;;;;;;;;;;;;;;;-140.72;100.00;52802.78;5077946;28;19920;-71
2023/09/14 00:43:39;;;;;;;;;;;;;;;-140.72;100.00;52784.53;5067276;28;20367;-71
2023/09/14 00:46:07;;;;;;;;;;;;;;;-140.72;100.00;52806.84;5066482;28;20012;-71
2023/09/14 00:48:35;;;;;;;;;;;;;;;-140.72;100.00;52762.22;5067746;28;20626;-71
2023/09/14 00:51:00;;;;;;;;;;;;;;;-140.72;100.00;52810.91;5069095;28;19932;-71
2023/09/14 00:53:25;;;;;;;;;;;;;;;-140.72;100.00;52792.66;5066732;28;19921;-71
2023/09/14 00:55:51;;;;;;;;;;;;;;;-140.72;100.00;52752.06;5072717;28;19927;-71
2023/09/14 00:58:16;;;;;;;;;;;;;;;-140.72;100.00;52800.75;5063257;28;20035;-70
2023/09/14 01:00:43;;;;;;;;;;;;;;;-140.72;100.00;52778.44;5067355;28;20286;-71
2023/09/14 01:03:09;;;;;;;;;;;;;;;-140.72;100.00;52770.31;5067293;28;19924;-71
2023/09/14 01:05:35;;;;;;;;;;;;;;;-140.72;100.00;52806.84;5069684;28;19966;-71
2023/09/14 01:08:00;;;;;;;;;;;;;;;-140.72;100.00;52800.75;5068238;28;19932;-71
2023/09/14 01:10:26;;;;;;;;;;;;;;;-140.72;100.00;52814.97;5071140;28;19921;-70
2023/09/14 01:12:51;;;;;;;;;;;;;;;-140.72;100.00;52853.53;5072475;28;19925;-71
2023/09/14 01:15:31;;;;;;;;;;;;;;;-140.72;100.00;52833.22;5072102;28;19928;-70
2023/09/14 01:18:11;;;;;;;;;;;;;;;-140.72;100.00;52798.72;5068032;28;19999;-70
2023/09/14 01:20:46;;;;;;;;;;;;;;;-140.72;100.00;52798.72;5071092;28;19981;-70
2023/09/14 01:23:31;;;;;;;;;;;;;;;-140.72;100.00;52814.97;5072539;28;19920;-71
2023/09/14 01:25:57;;;;;;;;;;;;;;;-140.72;100.00;52829.19;5071865;28;19927;-70
2023/09/14 01:28:22;;;;;;;;;;;;;;;-140.72;100.00;52823.09;5070745;28;20417;-71
2023/09/14 01:30:47;;;;;;;;;;;;;;;-140.72;100.00;52800.75;5071775;28;19928;-71
2023/09/14 01:33:14;;;;;;;;;;;;;;;-140.72;100.00;52796.72;5082290;28;19935;-71
2023/09/14 01:36:00;;;;;;;;;;;;;;;-140.72;100.00;52794.69;5071890;28;20392;-71
2023/09/14 01:38:27;;;;;;;;;;;;;;;-140.72;100.00;52786.56;5069961;28;20552;-71
2023/09/14 01:40:53;;;;;;;;;;;;;;;-140.72;100.00;52774.38;5075224;28;20019;-71
2023/09/14 01:43:19;;;;;;;;;;;;;;;-140.72;100.00;52806.84;5069668;28;19987;-71
2023/09/14 01:45:45;;;;;;;;;;;;;;;-140.72;100.00;52847.44;5066333;28;19921;-71
2023/09/14 01:48:14;;;;;;;;;;;;;;;-140.72;100.00;52808.88;5071543;28;19920;-70
2023/09/14 01:50:39;;;;;;;;;;;;;;;-140.72;100.00;52792.66;5070145;28;20001;-70
2023/09/14 01:53:04;;;;;;;;;;;;;;;-140.72;100.00;52780.47;5072973;28;19967;-70
2023/09/14 01:55:29;;;;;;;;;;;;;;;-140.72;100.00;52774.38;5068887;28;19921;-71
2023/09/14 01:57:54;;;;;;;;;;;;;;;-140.72;100.00;52782.50;5072805;28;20394;-71
2023/09/14 02:00:20;;;;;;;;;;;;;;;-140.72;100.00;52782.50;5072590;28;20682;-71
2023/09/14 02:02:45;;;;;;;;;;;;;;;-140.72;100.00;52788.59;5070989;28;19920;-71
2023/09/14 02:05:10;;;;;;;;;;;;;;;-140.72;100.00;52817.00;5070453;28;19924;-70
2023/09/14 02:07:35;;;;;;;;;;;;;;;-140.72;100.00;52788.59;5062799;28;20391;-71
2023/09/14 02:10:01;;;;;;;;;;;;;;;-140.72;100.00;52780.47;5069508;28;20267;-71
2023/09/14 02:12:26;;;;;;;;;;;;;;;-140.72;100.00;52796.72;5072455;28;19929;-70
2023/09/14 02:14:51;;;;;;;;;;;;;;;-140.72;100.00;52812.94;5072975;28;19955;-71
2023/09/14 02:17:17;;;;;;;;;;;;;;;-140.72;100.00;52790.63;5070452;28;19953;-71
2023/09/14 02:19:42;;;;;;;;;;;;;;;-140.72;100.00;52788.59;5067626;28;19925;-70
2023/09/14 02:22:20;;;;;;;;;;;;;;;-140.72;100.00;52800.75;5067132;28;20279;-70
2023/09/14 02:24:46;;;;;;;;;;;;;;;-140.72;100.00;52766.25;5076364;28;19921;-70
2023/09/14 02:27:30;;;;;;;;;;;;;;;-140.72;100.00;52800.75;5063147;28;19928;-70
2023/09/14 02:29:55;;;;;;;;;;;;;;;-140.72;100.00;52788.59;5073118;28;19927;-70
2023/09/14 02:32:21;;;;;;;;;;;;;;;-140.72;100.00;52790.63;5076681;28;19920;-70
2023/09/14 02:34:46;;;;;;;;;;;;;;;-140.72;100.00;52833.22;5072772;28;19968;-70
2023/09/14 02:37:12;;;;;;;;;;;;;;;-140.72;100.00;52821.06;5080976;28;19998;-70
2023/09/14 02:39:38;;;;;;;;;;;;;;;-140.72;100.00;52762.22;5079359;28;19928;-69
2023/09/14 02:42:03;;;;;;;;;;;;;;;-140.72;100.00;52821.06;5067178;28;19927;-70
2023/09/14 02:44:28;;;;;;;;;;;;;;;-140.72;100.00;52768.28;5063996;28;19935;-70
2023/09/14 02:46:53;;;;;;;;;;;;;;;-140.72;100.00;52817.00;5062444;28;19972;-70
2023/09/14 02:49:19;;;;;;;;;;;;;;;-140.72;100.00;52796.72;5081651;28;20345;-70
2023/09/14 02:51:44;;;;;;;;;;;;;;;-140.72;100.00;52788.59;5073959;28;19955;-70
2023/09/14 02:54:09;;;;;;;;;;;;;;;-140.72;100.00;52800.75;5072623;28;19924;-70
2023/09/14 02:56:34;;;;;;;;;;;;;;;-140.72;100.00;52790.63;5070501;28;19921;-70
2023/09/14 02:59:00;;;;;;;;;;;;;;;-140.72;100.00;52802.78;5059770;28;19980;-71
2023/09/14 03:01:25;;;;;;;;;;;;;;;-140.72;100.00;52786.56;5064123;28;19925;-71
2023/09/14 03:03:50;;;;;;;;;;;;;;;-140.72;100.00;52778.44;5084569;28;19927;-70
2023/09/14 03:06:15;;;;;;;;;;;;;;;-140.72;100.00;52808.88;5064394;28;19920;-69
2023/09/14 03:08:41;;;;;;;;;;;;;;;-140.72;100.00;52829.19;5077545;28;19948;-70
2023/09/14 03:11:06;;;;;;;;;;;;;;;-140.72;100.00;52794.69;5066388;28;19924;-70
2023/09/14 03:13:31;;;;;;;;;;;;;;;-140.72;100.00;52804.81;5077053;28;19920;-70
2023/09/14 03:15:58;;;;;;;;;;;;;;;-140.72;100.00;52788.59;5074604;28;20275;-70
2023/09/14 03:18:24;;;;;;;;;;;;;;;-140.72;100.00;52808.88;5068298;28;20398;-70
2023/09/14 03:20:54;;;;;;;;;;;;;;;-140.72;100.00;52802.78;5070983;28;19924;-70
2023/09/14 03:23:20;;;;;;;;;;;;;;;-140.72;100.00;52804.81;5070233;28;20448;-71
2023/09/14 03:25:48;;;;;;;;;;;;;;;-140.72;100.00;52821.06;5066459;28;19924;-71
2023/09/14 03:28:13;;;;;;;;;;;;;;;-140.72;100.00;52837.28;5072498;28;20469;-71
2023/09/14 03:30:38;;;;;;;;;;;;;;;-140.72;100.00;52827.16;5065360;28;19924;-71
2023/09/14 03:33:04;;;;;;;;;;;;;;;-140.72;100.00;52841.34;5064119;28;20414;-71
2023/09/14 03:35:29;;;;;;;;;;;;;;;-140.72;100.00;52817.00;5072767;28;20015;-71
2023/09/14 03:37:54;;;;;;;;;;;;;;;-140.72;100.00;52859.63;5071144;28;19921;-71
2023/09/14 03:40:20;;;;;;;;;;;;;;;-140.72;100.00;52831.19;5068756;28;19924;-71
2023/09/14 03:42:45;;;;;;;;;;;;;;;-140.72;100.00;52804.81;5071514;28;19927;-71
2023/09/14 03:45:10;;;;;;;;;;;;;;;-140.72;100.00;52808.88;5061589;28;19928;-71
2023/09/14 03:47:36;;;;;;;;;;;;;;;-140.72;100.00;52808.88;5069147;28;20432;-70
2023/09/14 03:50:01;;;;;;;;;;;;;;;-140.72;100.00;52853.53;5069219;28;19928;-71
2023/09/14 03:52:26;;;;;;;;;;;;;;;-140.72;100.00;52837.28;5073010;28;20394;-70
2023/09/14 03:54:52;;;;;;;;;;;;;;;-140.72;100.00;52829.19;5071095;28;19966;-70
2023/09/14 03:57:17;;;;;;;;;;;;;;;-140.72;100.00;52853.53;5072063;28;19921;-70
2023/09/14 03:59:43;;;;;;;;;;;;;;;-140.72;100.00;52833.22;5061372;28;19920;-72
2023/09/14 04:02:08;;;;;;;;;;;;;;;-140.72;100.00;52825.13;5067005;28;20007;-71
2023/09/14 04:04:34;;;;;;;;;;;;;;;-140.72;100.00;52817.00;5074472;28;19921;-77
2023/09/14 04:06:59;;;;;;;;;;;;;;;-140.72;100.00;52794.69;5063730;28;20464;-77
2023/09/14 04:09:29;;;;;;;;;;;;;;;-140.72;100.00;52841.34;5067687;28;19916;-74
2023/09/14 04:11:55;;;;;;;;;;;;;;;-140.72;100.00;52817.00;5067530;28;20353;-73
2023/09/14 04:14:20;;;;;;;;;;;;;;;-140.72;100.00;52804.81;5069246;28;19920;-71
2023/09/14 04:16:46;;;;;;;;;;;;;;;-140.72;100.00;52843.38;5064646;28;19991;-71
2023/09/14 04:19:12;;;;;;;;;;;;;;;-140.72;100.00;52808.88;5067231;28;20282;-71
2023/09/14 04:21:38;;;;;;;;;;;;;;;-140.72;100.00;52859.63;5066125;28;19932;-71
2023/09/14 04:24:03;;;;;;;;;;;;;;;-140.72;100.00;52821.06;5068169;28;20295;-71
2023/09/14 04:26:29;;;;;;;;;;;;;;;-140.72;100.00;52819.03;5070127;28;20266;-71
2023/09/14 04:28:54;;;;;;;;;;;;;;;-140.72;100.00;52800.75;5066359;28;20377;-71
2023/09/14 04:31:19;;;;;;;;;;;;;;;-140.72;100.00;52831.19;5068377;28;19924;-71
2023/09/14 04:33:44;;;;;;;;;;;;;;;-140.72;100.00;52855.56;5066795;28;19925;-71
2023/09/14 04:36:10;;;;;;;;;;;;;;;-140.72;100.00;52825.13;5069266;28;19928;-71
2023/09/14 04:38:35;;;;;;;;;;;;;;;-140.72;100.00;52817.00;5067776;28;20531;-71
2023/09/14 04:41:04;;;;;;;;;;;;;;;-140.72;100.00;52847.44;5066130;28;19921;-72
2023/09/14 04:43:32;;;;;;;;;;;;;;;-140.72;100.00;52847.44;5065725;28;20344;-73
2023/09/14 04:45:58;;;;;;;;;;;;;;;-140.72;100.00;52823.09;5067585;28;20302;-73
2023/09/14 04:48:23;;;;;;;;;;;;;;;-140.72;100.00;52798.72;5066043;28;19920;-72
2023/09/14 04:50:48;;;;;;;;;;;;;;;-140.72;100.00;52808.88;5069254;28;20337;-72
2023/09/14 04:53:14;;;;;;;;;;;;;;;-140.72;100.00;52796.72;5069474;28;20397;-72
2023/09/14 04:55:39;;;;;;;;;;;;;;;-140.72;100.00;52863.66;5066595;28;19932;-75
2023/09/14 04:58:06;;;;;;;;;;;;;;;-140.72;100.00;52869.75;5066074;28;19921;-72
2023/09/14 05:00:33;;;;;;;;;;;;;;;-140.72;100.00;52802.78;5067298;28;20294;-72
2023/09/14 05:02:58;;;;;;;;;;;;;;;-140.72;100.00;52802.78;5064379;28;19928;-71
2023/09/14 05:05:23;;;;;;;;;;;;;;;-140.72;100.00;52853.53;5070382;28;19924;-72
2023/09/14 05:07:49;;;;;;;;;;;;;;;-140.72;100.00;52796.72;5065850;28;20291;-71
2023/09/14 05:10:16;;;;;;;;;;;;;;;-140.72;100.00;52851.50;5068178;28;19920;-72
2023/09/14 05:12:41;;;;;;;;;;;;;;;-140.72;100.00;52829.19;5064614;28;20435;-72
2023/09/14 05:15:07;;;;;;;;;;;;;;;-140.72;100.00;52857.59;5062652;28;19920;-73
2023/09/14 05:17:33;;;;;;;;;;;;;;;-140.72;100.00;52873.81;5070216;28;19920;-74
2023/09/14 05:19:59;;;;;;;;;;;;;;;-140.72;100.00;52823.09;5069172;28;19925;-74
2023/09/14 05:22:25;;;;;;;;;;;;;;;-140.72;100.00;52837.28;5068097;28;19943;-75
2023/09/14 05:24:50;;;;;;;;;;;;;;;-140.72;100.00;52829.19;5065610;28;19921;-75
2023/09/14 05:27:17;;;;;;;;;;;;;;;-140.72;100.00;52825.13;5070129;28;19943;-75
2023/09/14 05:29:44;;;;;;;;;;;;;;;-140.72;100.00;52814.97;5066000;28;20394;-75
2023/09/14 05:32:10;;;;;;;;;;;;;;;-140.72;100.00;52845.41;5067215;28;19929;-74
2023/09/14 05:34:37;;;;;;;;;;;;;;;-140.72;100.00;52833.22;5065681;28;19966;-74
2023/09/14 05:40:09;;;;;;;;;;;;;;;-140.72;100.00;52823.09;5071009;28;20298;-74
2023/09/14 05:42:37;;;;;;;;;;;;;;;-140.72;100.00;52849.47;5069772;28;20401;-72
2023/09/14 05:45:02;;;;;;;;;;;;;;;-140.72;100.00;52853.53;5069780;28;19929;-72
2023/09/14 05:47:27;;;;;;;;;;;;;;;-140.72;100.00;52823.09;5067537;28;20026;-72
2023/09/14 05:49:53;;;;;;;;;;;;;;;-140.72;100.00;52817.00;5063833;28;19927;-72
2023/09/14 05:52:18;;;;;;;;;;;;;;;-140.72;100.00;52780.47;5068768;28;20303;-72
2023/09/14 05:55:03;;;;;;;;;;;;;;;-140.72;100.00;52812.94;5064432;28;20283;-74
2023/09/14 05:57:29;;;;;;;;;;;;;;;-140.72;100.00;52808.88;5075169;28;20394;-73
2023/09/14 05:59:54;;;;;;;;;;;;;;;-140.72;100.00;52817.00;5060567;28;19917;-73
2023/09/14 06:02:19;;;;;;;;;;;;;;;-140.72;100.00;52825.13;5075124;28;20321;-73
2023/09/14 06:04:47;;;;;;;;;;;;;;;-140.72;100.00;52774.38;5058741;28;20589;-73
2023/09/14 06:07:12;;;;;;;;;;;;;;;-140.72;100.00;52825.13;5084614;28;19920;-72
2023/09/14 06:09:37;;;;;;;;;;;;;;;-140.72;100.00;52776.41;5074134;28;19995;-73
2023/09/14 06:12:03;;;;;;;;;;;;;;;-140.72;100.00;52821.06;5058624;28;20290;-73
2023/09/14 06:14:28;;;;;;;;;;;;;;;-140.72;100.00;52829.19;5090698;28;19924;-73
2023/09/14 06:16:53;;;;;;;;;;;;;;;-140.72;100.00;52772.34;5072711;28;20012;-73
2023/09/14 06:19:19;;;;;;;;;;;;;;;-140.72;100.00;52780.47;5081926;28;19935;-73
2023/09/14 06:21:44;;;;;;;;;;;;;;;-140.72;100.00;52754.09;5078908;28;19974;-73
2023/09/14 06:24:10;;;;;;;;;;;;;;;-140.72;100.00;52800.75;5069730;28;19924;-71
2023/09/14 06:26:35;;;;;;;;;;;;;;;-140.72;100.00;52812.94;5087726;28;19929;-70
2023/09/14 06:29:00;;;;;;;;;;;;;;;-140.72;100.00;52802.78;5082869;28;20352;-70
2023/09/14 06:31:26;;;;;;;;;;;;;;;-140.72;100.00;52776.41;5080915;28;19993;-70
2023/09/14 06:33:51;;;;;;;;;;;;;;;-140.72;100.00;52827.16;5069900;28;19917;-70
2023/09/14 06:36:18;;;;;;;;;;;;;;;-140.72;100.00;52792.66;5064592;28;20030;-70
2023/09/14 06:38:44;;;;;;;;;;;;;;;-140.72;100.00;52770.31;5077718;28;19938;-70
2023/09/14 06:41:10;;;;;;;;;;;;;;;-140.72;100.00;52802.78;5080014;28;19947;-70
2023/09/14 06:43:35;;;;;;;;;;;;;;;-140.72;100.00;52810.91;5063315;28;19923;-70
2023/09/14 06:46:00;;;;;;;;;;;;;;;-140.72;100.00;52800.75;5076902;28;20282;-71
2023/09/14 06:48:25;;;;;;;;;;;;;;;-140.72;100.00;52772.34;5073606;28;19948;-70
2023/09/14 06:50:51;;;;;;;;;;;;;;;-140.72;100.00;52756.13;5065732;28;20247;-70
2023/09/14 06:53:18;;;;;;;;;;;;;;;-140.72;100.00;52758.16;5074716;28;20397;-71
2023/09/14 06:55:43;;;;;;;;;;;;;;;-140.72;100.00;52800.75;5079303;28;20020;-71
2023/09/14 06:58:09;;;;;;;;;;;;;;;-140.72;100.00;52748.00;5067900;28;20359;-71
2023/09/14 07:00:35;;;;;;;;;;;;;;;-140.72;100.00;52796.72;5065927;28;20327;-71
2023/09/14 07:03:01;;;;;;;;;;;;;;;-140.72;100.00;52782.50;5061739;28;20378;-71
2023/09/14 07:05:27;;;;;;;;;;;;;;;-140.72;100.00;52776.41;5089190;28;19916;-71
2023/09/14 07:07:53;;;;;;;;;;;;;;;-140.72;100.00;52774.38;5093076;28;20011;-71
2023/09/14 07:10:18;;;;;;;;;;;;;;;-140.72;100.00;52796.72;5083496;28;19920;-71
2023/09/14 07:12:44;;;;;;;;;;;;;;;-140.72;100.00;52764.25;5087833;28;19920;-71
2023/09/14 07:15:10;;;;;;;;;;;;;;;-140.72;100.00;52792.66;5077608;28;19921;-71
2023/09/14 07:17:35;;;;;;;;;;;;;;;-140.72;100.00;52792.66;5074720;28;19923;-71
2023/09/14 07:20:00;;;;;;;;;;;;;;;-140.72;100.00;52782.50;5074012;28;19939;-71
2023/09/14 07:22:26;;;;;;;;;;;;;;;-140.72;100.00;52776.41;5093946;28;19920;-72
2023/09/14 07:24:51;;;;;;;;;;;;;;;-140.72;100.00;52754.09;5092489;28;19920;-71
2023/09/14 07:27:17;;;;;;;;;;;;;;;-140.72;100.00;52748.00;5072669;28;19924;-71
2023/09/14 07:29:42;;;;;;;;;;;;;;;-140.72;100.00;52776.41;5075329;28;19921;-71
2023/09/14 07:32:09;;;;;;;;;;;;;;;-140.72;100.00;52735.81;5074708;28;19916;-72
2023/09/14 07:34:34;;;;;;;;;;;;;;;-140.72;100.00;52750.03;5056989;28;19917;-71
2023/09/14 07:36:59;;;;;;;;;;;;;;;-140.72;100.00;52792.66;5067754;28;19931;-71
2023/09/14 07:39:24;;;;;;;;;;;;;;;-140.72;100.00;52729.75;5074919;28;20338;-69
2023/09/14 07:41:55;;;;;;;;;;;;;;;-140.72;100.00;52750.03;5072379;28;19939;-70
2023/09/14 07:44:20;;;;;;;;;;;;;;;-140.72;100.00;52760.19;5064495;28;20287;-70
2023/09/14 07:46:45;;;;;;;;;;;;;;;-140.72;100.00;52778.44;5060286;28;19920;-70
2023/09/14 07:49:10;;;;;;;;;;;;;;;-140.72;100.00;52764.25;5075372;28;19971;-70
2023/09/14 07:51:36;;;;;;;;;;;;;;;-140.72;100.00;52715.53;5069165;28;19928;-70
2023/09/14 07:54:01;;;;;;;;;;;;;;;-140.72;100.00;52756.13;5085406;28;19921;-70
2023/09/14 07:56:26;;;;;;;;;;;;;;;-140.72;100.00;52731.75;5062776;28;19928;-71
2023/09/14 07:58:53;;;;;;;;;;;;;;;-140.72;100.00;52739.88;5063630;28;19916;-71
2023/09/14 08:01:18;;;;;;;;;;;;;;;-140.72;100.00;52745.97;5075983;28;19928;-71
2023/09/14 08:03:44;;;;;;;;;;;;;;;-140.72;100.00;52745.97;5075394;28;19924;-71
2023/09/14 08:06:09;;;;;;;;;;;;;;;-140.72;100.00;52754.09;5072753;28;19943;-71
2023/09/14 08:08:35;;;;;;;;;;;;;;;-140.72;100.00;52754.09;5059980;28;19917;-71
2023/09/14 08:11:00;;;;;;;;;;;;;;;-140.72;100.00;52752.06;5073965;28;19920;-72
2023/09/14 08:13:25;;;;;;;;;;;;;;;-140.72;100.00;52717.56;5067489;28;19920;-72
2023/09/14 08:15:51;;;;;;;;;;;;;;;-140.72;100.00;52735.81;5073981;28;20367;-71
2023/09/14 08:18:18;;;;;;;;;;;;;;;-140.72;100.00;52719.59;5073201;28;19981;-71
2023/09/14 08:20:43;;;;;;;;;;;;;;;-140.72;100.00;52674.94;5093777;28;19923;-71
2023/09/14 08:23:10;;;;;;;;;;;;;;;-140.72;100.00;52695.25;5082293;28;19920;-71
2023/09/14 08:25:47;;;;;;;;;;;;;;;-140.72;100.00;52703.34;5052536;28;19921;-71
2023/09/14 08:28:13;;;;;;;;;;;;;;;-140.72;100.00;52717.56;5057870;28;19921;-71
2023/09/14 08:30:39;;;;;;;;;;;;;;;-140.72;100.00;52689.16;5072892;28;19917;-70
2023/09/14 08:33:05;;;;;;;;;;;;;;;-140.72;100.00;52711.47;5057115;28;20008;-71
2023/09/14 08:35:31;;;;;;;;;;;;;;;-140.72;100.00;52660.75;5071852;28;20066;-70
2023/09/14 08:37:57;;;;;;;;;;;;;;;-140.72;100.00;52711.47;5076263;28;19917;-71
2023/09/14 08:40:22;;;;;;;;;;;;;;;-140.72;100.00;52668.84;5082829;28;19924;-70
2023/09/14 08:42:52;;;;;;;;;;;;;;;-140.72;100.00;52695.25;5071659;28;19916;-70
2023/09/14 08:45:24;;;;;;;;;;;;;;;-140.72;100.00;52650.59;5069297;28;19924;-70
2023/09/14 08:47:50;;;;;;;;;;;;;;;-140.72;100.00;52618.13;5060117;28;19947;-70
2023/09/14 08:50:17;;;;;;;;;;;;;;;-140.72;100.00;52638.41;5068734;28;20364;-70
2023/09/14 08:52:44;;;;;;;;;;;;;;;-140.72;100.00;52614.06;5068966;28;19970;-70
2023/09/14 08:55:10;;;;;;;;;;;;;;;-140.72;100.00;52603.94;5052643;28;19980;-71
2023/09/14 08:57:36;;;;;;;;;;;;;;;-140.72;100.00;52573.50;5070203;28;19962;-70
2023/09/14 09:00:03;;;;;;;;;;;;;;;-140.72;100.00;52595.81;5072096;28;19948;-70
2023/09/14 09:02:32;;;;;;;;;;;;;;;-140.72;100.00;52557.25;5085466;28;19942;-71
2023/09/14 09:04:57;;;;;;;;;;;;;;;-140.72;100.00;52555.22;5077031;28;19916;-71
2023/09/14 09:07:23;;;;;;;;;;;;;;;-140.72;100.00;52553.19;5061395;28;19917;-71
2023/09/14 09:09:49;;;;;;;;;;;;;;;-140.72;100.00;52567.41;5058338;28;19929;-72
2023/09/14 09:12:14;;;;;;;;;;;;;;;-140.72;100.00;52496.38;5053487;28;19971;-71
2023/09/14 09:14:40;;;;;;;;;;;;;;;-140.72;100.00;52492.31;5058043;28;19925;-71
2023/09/14 09:17:06;;;;;;;;;;;;;;;-140.72;100.00;52520.72;5052772;28;19939;-71
2023/09/14 09:19:44;;;;;;;;;;;;;;;-140.72;100.00;52472.03;5073204;28;20393;-71
2023/09/14 09:22:10;;;;;;;;;;;;;;;-140.72;100.00;52526.81;5085143;28;20398;-71
2023/09/14 09:24:37;;;;;;;;;;;;;;;-140.72;100.00;52549.13;5081499;28;19920;-70
2023/09/14 09:27:23;;;;;;;;;;;;;;;-140.72;100.00;52484.19;5091842;28;20286;-71
2023/09/14 09:29:50;;;;;;;;;;;;;;;-140.72;100.00;52504.50;5083485;28;19919;-71
2023/09/14 09:32:20;;;;;;;;;;;;;;;-140.72;100.00;52478.13;5079119;28;19980;-71
2023/09/14 09:34:45;;;;;;;;;;;;;;;-140.72;100.00;52443.63;5072470;28;19916;-71
2023/09/14 09:37:11;;;;;;;;;;;;;;;-140.72;100.00;52413.19;5067971;28;20333;-71
2023/09/14 09:39:36;;;;;;;;;;;;;;;-140.72;100.00;52411.16;5077901;28;19930;-71
2023/09/14 09:42:01;;;;;;;;;;;;;;;-140.72;100.00;52396.94;5077452;28;19963;-71
2023/09/14 09:44:27;;;;;;;;;;;;;;;-140.72;100.00;52330.00;5077246;28;19973;-71
2023/09/14 09:46:55;;;;;;;;;;;;;;;-140.72;100.00;52340.13;5067356;28;19956;-71
2023/09/14 09:49:22;;;;;;;;;;;;;;;-140.72;14.12;52325.94;5065287;28;20371;-71
2023/09/14 09:51:50;;;;;;;;;;;;;;;-140.72;0.00;52340.13;5066439;28;19927;-71
2023/09/14 09:54:20;;;;;;;;;;;;;;;-140.72;0.00;52309.69;5072686;28;19927;-71
2023/09/14 09:56:45;;;;;;;;;;;;;;;-140.72;0.00;52370.56;5066963;28;19917;-71
2023/09/14 09:59:13;;;;;;;;;;;;;;;-140.72;0.00;52360.44;5063972;28;20315;-72
2023/09/14 10:01:39;;;;;;;;;;;;;;;-140.72;0.00;52431.44;5076243;28;19917;-71
2023/09/14 10:04:11;;;;;;;;;;;;;;;-140.72;0.00;52455.78;5073501;28;19921;-71
2023/09/14 10:06:40;;;;;;;;;;;;;;;-140.72;100.00;52508.56;5068251;28;20260;-72
2023/09/14 10:09:11;;;;;;;;;;;;;;;-140.72;100.00;52549.13;5061915;28;19922;-71
2023/09/14 10:11:37;;;;;;;;;;;;;;;-140.72;100.00;52508.56;5062782;28;19917;-71
2023/09/14 10:14:03;;;;;;;;;;;;;;;-140.72;100.00;52480.16;5073016;28;19924;-71
2023/09/14 10:16:30;;;;;;;;;;;;;;;-140.72;100.00;52490.28;5059869;28;19921;-71
2023/09/14 10:18:56;;;;;;;;;;;;;;;-140.72;100.00;52447.69;5087409;28;19920;-71
2023/09/14 10:21:23;;;;;;;;;;;;;;;-140.72;100.00;52386.81;5074524;28;19916;-70
2023/09/14 10:23:49;;;;;;;;;;;;;;;-140.72;48.30;52362.44;5073368;28;20264;-71
2023/09/14 10:26:15;;;;;;;;;;;;;;;-140.72;0.00;52303.59;5073265;28;19920;-71
2023/09/14 10:28:40;;;;;;;;;;;;;;;-140.72;0.00;52309.69;5087120;28;19923;-71
2023/09/14 10:31:06;;;;;;;;;;;;;;;-140.72;0.00;52240.72;5069028;28;19917;-71
2023/09/14 10:33:32;;;;;;;;;;;;;;;-140.72;0.00;52254.91;5078146;28;19936;-71
2023/09/14 10:35:59;;;;;;;;;;;;;;;-140.72;0.00;52216.34;5069251;28;19917;-71
2023/09/14 10:38:25;;;;;;;;;;;;;;;-140.72;0.00;52159.56;5077353;28;20324;-71
2023/09/14 10:40:52;;;;;;;;;;;;;;;-140.72;0.00;52161.56;5064645;28;19923;-71
2023/09/14 10:43:17;;;;;;;;;;;;;;;-140.72;0.00;52131.16;5073510;28;20286;-71
2023/09/14 10:45:43;;;;;;;;;;;;;;;-140.72;0.00;52129.13;5075171;28;19921;-71
2023/09/14 10:48:14;;;;;;;;;;;;;;;-140.72;0.00;52149.41;5060684;28;19952;-71
2023/09/14 10:50:39;;;;;;;;;;;;;;;-140.72;0.00;52118.97;5084573;28;19924;-71
2023/09/14 10:53:05;;;;;;;;;;;;;;;-140.72;0.00;52204.19;5069686;28;19971;-70
2023/09/14 10:55:31;;;;;;;;;;;;;;;-140.72;0.00;52261.00;5055594;28;20418;-70
2023/09/14 10:57:56;;;;;;;;;;;;;;;-140.72;0.00;52362.44;5074384;28;19999;-70
2023/09/14 11:00:36;;;;;;;;;;;;;;;-140.72;0.00;52338.09;5065168;28;19994;-70
2023/09/14 11:03:02;;;;;;;;;;;;;;;-140.72;0.00;52232.59;5054259;28;19917;-70
2023/09/14 11:05:43;;;;;;;;;;;;;;;-140.72;0.00;52228.53;5071406;28;20329;-70
2023/09/14 11:08:09;;;;;;;;;;;;;;;-140.72;0.00;52145.34;5055746;28;20428;-71
2023/09/14 11:10:37;;;;;;;;;;;;;;;-140.72;0.00;52098.69;5064013;28;20447;-71
2023/09/14 11:13:20;;;;;;;;;;;;;;;-140.72;0.00;52060.13;5080148;28;19932;-72
2023/09/14 11:15:47;;;;;;;;;;;;;;;-140.72;0.00;52052.00;5069375;28;19923;-70
2023/09/14 11:18:32;;;;;;;;;;;;;;;-140.72;0.00;52035.78;5079860;28;19916;-70
2023/09/14 11:20:57;;;;;;;;;;;;;;;-140.72;0.00;51952.59;5072900;28;19916;-72
2023/09/14 11:23:31;;;;;;;;;;;;;;;-140.72;0.00;52009.41;5090010;28;20290;-70
2023/09/14 11:25:57;;;;;;;;;;;;;;;-140.72;0.00;52007.38;5083689;28;19970;-70
2023/09/14 11:28:22;;;;;;;;;;;;;;;-140.72;0.00;52017.53;5085649;28;19920;-71
2023/09/14 11:30:48;;;;;;;;;;;;;;;-140.72;0.00;51968.81;5073215;28;19916;-70
2023/09/14 11:33:13;;;;;;;;;;;;;;;-140.72;0.00;51981.00;5065959;28;19916;-72
2023/09/14 11:35:39;;;;;;;;;;;;;;;-140.72;0.00;52001.28;5068962;28;20136;-71
2023/09/14 11:38:13;;;;;;;;;;;;;;;-140.72;0.00;51985.06;5063764;28;19922;-70
2023/09/14 11:40:39;;;;;;;;;;;;;;;-140.72;0.00;51954.63;5075457;28;20362;-70
2023/09/14 11:43:07;;;;;;;;;;;;;;;-140.72;0.00;52123.03;5064406;28;20010;-70
2023/09/14 11:45:37;;;;;;;;;;;;;;;-140.72;0.00;52206.22;5064666;28;19920;-71
2023/09/14 11:48:03;;;;;;;;;;;;;;;-140.72;0.00;52303.59;5075830;28;20396;-71
2023/09/14 11:50:29;;;;;;;;;;;;;;;-140.72;0.00;52354.34;5062354;28;20015;-70
2023/09/14 11:52:56;;;;;;;;;;;;;;;-140.72;0.00;52342.16;5057088;28;20283;-71
2023/09/14 11:55:22;;;;;;;;;;;;;;;-140.72;0.00;52200.13;5054218;28;19992;-70
2023/09/14 11:57:47;;;;;;;;;;;;;;;-140.72;0.00;52163.59;5068968;28;19920;-71
2023/09/14 12:00:12;;;;;;;;;;;;;;;-140.72;0.00;52047.97;5053751;28;19916;-70
2023/09/14 12:02:38;;;;;;;;;;;;;;;-140.72;0.00;51976.94;5075045;28;20375;-71
2023/09/14 12:05:03;;;;;;;;;;;;;;;-140.72;0.00;51985.06;5062279;28;19956;-70
2023/09/14 12:07:29;;;;;;;;;;;;;;;-140.72;0.00;51932.31;5074793;28;19917;-70
2023/09/14 12:09:54;;;;;;;;;;;;;;;-140.72;0.00;51916.06;5069748;28;19974;-71
2023/09/14 12:12:29;;;;;;;;;;;;;;;-140.72;0.00;51883.63;5072717;28;19967;-70
2023/09/14 12:14:55;;;;;;;;;;;;;;;-140.72;0.00;51928.25;5076038;28;19920;-72
2023/09/14 12:17:24;;;;;;;;;;;;;;;-140.72;0.00;51816.66;5074533;28;19923;-71
2023/09/14 12:19:50;;;;;;;;;;;;;;;-140.72;0.00;51800.44;5074419;28;19928;-71